Terminal Aerodrome Forecast
Issued by NWS Paducah, KY

Home | Current Version | Previous Version | Text Only | Print | Product List | Glossary Off
Versions: 1 2 3 4 5 6 7 8 9 10 11 12 13

964
FTUS43 KPAH 211734
TAFEVV
TAF
KEVV 211734Z 2118/2218 22015G23KT P6SM SCT250
     FM212000 25009KT P6SM FEW040 BKN150
     FM220000 31007KT P6SM SCT040 BKN120
     FM220200 34009G15KT P6SM SKC
     FM220900 35006KT P6SM SCT250=

USA.gov is the U.S. government's official web portal to all federal, state and local government web resources and services.